Dilley, Texas
Current Conditions -  °F | °C
As of 9:53 AM on Friday 24 Oct 2014 (Local Time) from KCOT Reporting Station
Clear Clear  
Wind Chill: 74°   Ceiling: Unl
Heat Index: 74°   Visibility: 10mi
Dew Point: 62°   Wind: 5mph
Humidity: 66%   Direction: NA
Pressure: 30.17"   Gusts: NA
Location:  28.67°N, 99.17°W
Report Text: KCOT 241453Z AUTO VRB04KT 10SM CLR 23/17 A3017 RMK AO2 SLP211 T02330167 53019
Loading
Personal Weather Stations






























Interactive Weather Map
Tropical Storm Tracking
New forecast layout! Learn more

10-Day Weather Forecast

Advertisements
Track Severe Weather on mobile